Time,TemperatureF,DewpointF,PressureIn,WindDirection,WindDirectionDegrees,WindSpeedMPH,WindSpeedGustMPH,Humidity,HourlyPrecipIn,Conditions,Clouds,dailyrainin,SoftwareType,DateUTC
2013-09-26 00:14:00,54.5,52.0,29.96,ENE,67,0.0,0.0,92,0.00,,,0.00,weatherlink.com 1.10,2013-09-26 04:14:00,
2013-09-26 00:29:00,54.3,52.0,29.96,ENE,67,0.0,0.0,92,0.00,,,0.00,weatherlink.com 1.10,2013-09-26 04:29:00,
2013-09-26 00:44:00,54.0,52.0,29.96,ENE,67,0.0,0.0,93,0.00,,,0.00,weatherlink.com 1.10,2013-09-26 04:44:00,
2013-09-26 00:59:00,53.7,52.0,29.96,ENE,67,0.0,0.0,93,0.00,,,0.00,weatherlink.com 1.10,2013-09-26 04:59:00,
2013-09-26 01:14:00,53.5,52.0,29.96,ENE,67,0.0,1.0,93,0.00,,,0.00,weatherlink.com 1.10,2013-09-26 05:14:00,
2013-09-26 01:29:00,53.2,51.0,29.96,ENE,67,0.0,0.0,93,0.00,,,0.00,weatherlink.com 1.10,2013-09-26 05:29:00,
2013-09-26 01:44:00,53.1,52.0,29.96,ENE,67,0.0,0.0,94,0.00,,,0.00,weatherlink.com 1.10,2013-09-26 05:44:00,
2013-09-26 01:59:00,52.9,51.0,29.97,ENE,67,0.0,0.0,94,0.00,,,0.00,weatherlink.com 1.10,2013-09-26 05:59:00,
2013-09-26 02:14:00,52.7,51.0,29.97,ENE,67,0.0,0.0,95,0.00,,,0.00,weatherlink.com 1.10,2013-09-26 06:14:00,
2013-09-26 02:29:00,52.5,51.0,29.98,ENE,67,0.0,0.0,95,0.00,,,0.00,weatherlink.com 1.10,2013-09-26 06:29:00,
2013-09-26 02:44:00,52.4,51.0,29.98,ENE,67,0.0,0.0,95,0.00,,,0.00,weatherlink.com 1.10,2013-09-26 06:44:00,
2013-09-26 02:59:00,52.5,51.0,29.98,ENE,67,0.0,0.0,96,0.00,,,0.00,weatherlink.com 1.10,2013-09-26 06:59:00,
2013-09-26 03:14:00,52.7,52.0,29.98,ENE,67,0.0,0.0,96,0.00,,,0.00,weatherlink.com 1.10,2013-09-26 07:14:00,
2013-09-26 03:29:00,52.3,51.0,29.98,ENE,67,0.0,0.0,95,0.00,,,0.00,weatherlink.com 1.10,2013-09-26 07:29:00,
2013-09-26 03:44:00,52.2,51.0,29.98,ENE,67,0.0,0.0,96,0.00,,,0.00,weatherlink.com 1.10,2013-09-26 07:44:00,
2013-09-26 03:59:00,51.9,51.0,29.99,ENE,67,0.0,0.0,96,0.00,,,0.00,weatherlink.com 1.10,2013-09-26 07:59:00,
2013-09-26 04:14:00,52.1,51.0,29.99,ENE,67,0.0,0.0,96,0.00,,,0.00,weatherlink.com 1.10,2013-09-26 08:14:00,
2013-09-26 04:29:00,51.4,50.0,29.99,ENE,67,0.0,0.0,95,0.00,,,0.00,weatherlink.com 1.10,2013-09-26 08:29:00,
2013-09-26 04:44:00,50.9,50.0,29.99,ENE,67,0.0,0.0,96,0.00,,,0.00,weatherlink.com 1.10,2013-09-26 08:44:00,
2013-09-26 04:59:00,50.5,49.0,29.99,ENE,67,0.0,0.0,96,0.00,,,0.00,weatherlink.com 1.10,2013-09-26 08:59:00,
2013-09-26 05:14:00,50.3,49.0,30.00,ENE,67,0.0,0.0,96,0.00,,,0.00,weatherlink.com 1.10,2013-09-26 09:14:00,
2013-09-26 05:29:00,50.3,50.0,30.01,ENE,67,0.0,0.0,97,0.00,,,0.00,weatherlink.com 1.10,2013-09-26 09:29:00,
2013-09-26 05:44:00,50.2,49.0,30.01,ENE,67,0.0,0.0,97,0.00,,,0.00,weatherlink.com 1.10,2013-09-26 09:44:00,
2013-09-26 05:59:00,50.0,49.0,30.02,ENE,67,0.0,0.0,97,0.00,,,0.00,weatherlink.com 1.10,2013-09-26 09:59:00,
2013-09-26 06:14:00,49.7,49.0,30.02,ENE,67,0.0,1.0,96,0.00,,,0.00,weatherlink.com 1.10,2013-09-26 10:14:00,
2013-09-26 06:29:00,49.7,49.0,30.02,NNE,28,0.0,1.0,97,0.00,,,0.00,weatherlink.com 1.10,2013-09-26 10:29:00,
2013-09-26 06:44:00,49.6,49.0,30.03,NE,39,0.0,0.0,97,0.00,,,0.00,weatherlink.com 1.10,2013-09-26 10:44:00,
2013-09-26 06:59:00,49.4,49.0,30.03,ENE,63,0.0,1.0,97,0.00,,,0.00,weatherlink.com 1.10,2013-09-26 10:59:00,
2013-09-26 07:14:00,49.2,48.0,30.03,ENE,59,0.0,1.0,97,0.00,,,0.00,weatherlink.com 1.10,2013-09-26 11:14:00,
2013-09-26 07:29:00,49.1,48.0,30.03,ENE,59,0.0,1.0,97,0.00,,,0.00,weatherlink.com 1.10,2013-09-26 11:29:00,
2013-09-26 07:45:00,49.0,48.0,30.03,NE,55,0.0,1.0,97,0.00,,,0.00,weatherlink.com 1.10,2013-09-26 11:45:00,
2013-09-26 08:00:00,49.1,48.0,30.04,NE,46,0.0,1.0,97,0.00,,,0.00,weatherlink.com 1.10,2013-09-26 12:00:00,
2013-09-26 08:15:00,49.5,49.0,30.04,NE,46,0.0,0.0,97,0.00,,,0.00,weatherlink.com 1.10,2013-09-26 12:15:00,
2013-09-26 08:30:00,49.7,49.0,30.04,NE,46,0.0,0.0,98,0.00,,,0.00,weatherlink.com 1.10,2013-09-26 12:30:00,
2013-09-26 08:45:00,50.8,50.0,30.05,NE,46,0.0,0.0,98,0.00,,,0.00,weatherlink.com 1.10,2013-09-26 12:45:00,
2013-09-26 09:00:00,51.3,51.0,30.05,NE,46,0.0,0.0,98,0.00,,,0.00,weatherlink.com 1.10,2013-09-26 13:00:00,
2013-09-26 09:15:00,52.1,52.0,30.06,NE,56,0.0,0.0,98,0.00,,,0.00,weatherlink.com 1.10,2013-09-26 13:15:00,
2013-09-26 09:30:00,53.5,53.0,30.06,NE,53,0.0,1.0,98,0.00,,,0.00,weatherlink.com 1.10,2013-09-26 13:30:00,
2013-09-26 09:45:00,54.8,55.0,30.07,ENE,69,0.0,1.0,99,0.00,,,0.00,weatherlink.com 1.10,2013-09-26 13:45:00,
2013-09-26 10:00:00,56.0,56.0,30.07,NE,53,0.0,1.0,98,0.00,,,0.00,weatherlink.com 1.10,2013-09-26 14:00:00,
2013-09-26 10:15:00,57.1,57.0,30.08,ENE,76,1.0,1.0,98,0.00,,,0.00,weatherlink.com 1.10,2013-09-26 14:15:00,
2013-09-26 10:30:00,58.8,57.0,30.08,East,79,1.0,2.0,93,0.00,,,0.00,weatherlink.com 1.10,2013-09-26 14:30:00,
2013-09-26 10:45:00,60.3,57.0,30.08,ENE,57,0.0,5.0,90,0.00,,,0.00,weatherlink.com 1.10,2013-09-26 14:45:00,
2013-09-26 11:00:00,61.7,59.0,30.07,West,269,0.0,2.0,89,0.00,,,0.00,weatherlink.com 1.10,2013-09-26 15:00:00,
2013-09-26 11:15:00,62.9,58.0,30.08,NE,55,0.0,2.0,83,0.00,,,0.00,weatherlink.com 1.10,2013-09-26 15:15:00,
2013-09-26 11:30:00,64.1,57.0,30.08,East,82,1.0,3.0,79,0.00,,,0.00,weatherlink.com 1.10,2013-09-26 15:30:00,
2013-09-26 11:45:00,65.7,58.0,30.08,South,180,0.0,4.0,75,0.00,,,0.00,weatherlink.com 1.10,2013-09-26 15:45:00,
2013-09-26 12:00:00,66.8,57.0,30.07,ESE,123,0.0,2.0,71,0.00,,,0.00,weatherlink.com 1.10,2013-09-26 16:00:00,
2013-09-26 12:15:00,68.4,57.0,30.08,ENE,76,0.0,5.0,68,0.00,,,0.00,weatherlink.com 1.10,2013-09-26 16:15:00,
2013-09-26 12:30:00,70.1,57.0,30.07,ENE,66,0.0,4.0,64,0.00,,,0.00,weatherlink.com 1.10,2013-09-26 16:30:00,
2013-09-26 12:46:00,71.1,55.0,30.07,SSW,197,3.0,4.0,58,0.00,,,0.00,weatherlink.com 1.10,2013-09-26 16:46:00,
2013-09-26 13:01:00,73.1,57.0,30.06,South,169,0.0,4.0,58,0.00,,,0.00,weatherlink.com 1.10,2013-09-26 17:01:00,
2013-09-26 13:16:00,73.1,53.0,30.06,East,97,3.0,5.0,50,0.00,,,0.00,weatherlink.com 1.10,2013-09-26 17:16:00,
2013-09-26 13:31:00,73.7,55.0,30.06,SE,134,1.0,6.0,53,0.00,,,0.00,weatherlink.com 1.10,2013-09-26 17:31:00,
2013-09-26 13:46:00,74.2,56.0,30.05,SSW,207,0.0,5.0,53,0.00,,,0.00,weatherlink.com 1.10,2013-09-26 17:46:00,
2013-09-26 14:01:00,75.1,55.0,30.04,NW,317,0.0,5.0,49,0.00,,,0.00,weatherlink.com 1.10,2013-09-26 18:01:00,
2013-09-26 14:16:00,75.6,54.0,30.04,SE,131,2.0,10.0,48,0.00,,,0.00,weatherlink.com 1.10,2013-09-26 18:16:00,
2013-09-26 14:31:00,76.2,55.0,30.04,East,85,3.0,5.0,48,0.00,,,0.00,weatherlink.com 1.10,2013-09-26 18:31:00,
2013-09-26 14:46:00,76.0,54.0,30.04,West,261,0.0,3.0,47,0.00,,,0.00,weatherlink.com 1.10,2013-09-26 18:46:00,
2013-09-26 15:01:00,77.0,54.0,30.04,ENE,73,2.0,8.0,45,0.00,,,0.00,weatherlink.com 1.10,2013-09-26 19:01:00,
2013-09-26 15:16:00,77.5,55.0,30.04,SE,128,4.0,5.0,46,0.00,,,0.00,weatherlink.com 1.10,2013-09-26 19:16:00,
2013-09-26 15:31:00,78.3,53.0,30.04,East,84,0.0,5.0,41,0.00,,,0.00,weatherlink.com 1.10,2013-09-26 19:31:00,
2013-09-26 15:46:00,79.4,52.0,30.04,ESE,108,2.0,5.0,39,0.00,,,0.00,weatherlink.com 1.10,2013-09-26 19:46:00,
2013-09-26 16:01:00,79.4,52.0,30.04,SE,139,1.0,4.0,38,0.00,,,0.00,weatherlink.com 1.10,2013-09-26 20:01:00,
2013-09-26 16:16:00,79.8,54.0,30.04,North,9,0.0,7.0,41,0.00,,,0.00,weatherlink.com 1.10,2013-09-26 20:16:00,
2013-09-26 16:31:00,80.8,54.0,30.04,SE,126,1.0,3.0,39,0.00,,,0.00,weatherlink.com 1.10,2013-09-26 20:31:00,
2013-09-26 16:46:00,80.8,54.0,30.04,ESE,115,0.0,4.0,39,0.00,,,0.00,weatherlink.com 1.10,2013-09-26 20:46:00,
2013-09-26 17:01:00,79.1,53.0,30.04,SSE,147,0.0,4.0,40,0.00,,,0.00,weatherlink.com 1.10,2013-09-26 21:01:00,
2013-09-26 17:16:00,76.7,51.0,30.04,ESE,104,1.0,2.0,40,0.00,,,0.00,weatherlink.com 1.10,2013-09-26 21:16:00,
2013-09-26 17:46:00,73.8,49.0,30.04,South,177,0.0,2.0,42,0.00,,,0.00,weatherlink.com 1.10,2013-09-26 21:46:00,
2013-09-26 18:01:00,72.9,50.0,30.04,SSE,167,0.0,1.0,45,0.00,,,0.00,weatherlink.com 1.10,2013-09-26 22:01:00,
2013-09-26 18:16:00,72.0,50.0,30.05,ESE,118,0.0,1.0,46,0.00,,,0.00,weatherlink.com 1.10,2013-09-26 22:16:00,
2013-09-26 18:31:00,71.3,49.0,30.05,ESE,104,0.0,1.0,46,0.00,,,0.00,weatherlink.com 1.10,2013-09-26 22:31:00,
2013-09-26 18:46:00,70.6,50.0,30.05,ESE,104,0.0,1.0,48,0.00,,,0.00,weatherlink.com 1.10,2013-09-26 22:46:00,
2013-09-26 19:01:00,69.9,50.0,30.05,ESE,104,0.0,0.0,50,0.00,,,0.00,weatherlink.com 1.10,2013-09-26 23:01:00,
2013-09-26 19:16:00,68.8,53.0,30.05,ESE,104,0.0,0.0,57,0.00,,,0.00,weatherlink.com 1.10,2013-09-26 23:16:00,
2013-09-26 19:31:00,67.0,54.0,30.05,ESE,104,0.0,0.0,64,0.00,,,0.00,weatherlink.com 1.10,2013-09-26 23:31:00,
2013-09-26 19:46:00,65.6,55.0,30.06,ESE,104,0.0,0.0,68,0.00,,,0.00,weatherlink.com 1.10,2013-09-26 23:46:00,
2013-09-26 20:01:00,64.3,54.0,30.06,ESE,104,0.0,0.0,69,0.00,,,0.00,weatherlink.com 1.10,2013-09-27 00:01:00,
2013-09-26 20:16:00,63.3,55.0,30.06,ESE,104,0.0,0.0,73,0.00,,,0.00,weatherlink.com 1.10,2013-09-27 00:16:00,
2013-09-26 20:31:00,62.4,54.0,30.07,ESE,104,0.0,0.0,75,0.00,,,0.00,weatherlink.com 1.10,2013-09-27 00:31:00,
2013-09-26 20:46:00,61.6,54.0,30.07,ESE,104,0.0,0.0,77,0.00,,,0.00,weatherlink.com 1.10,2013-09-27 00:46:00,
2013-09-26 21:01:00,60.9,55.0,30.08,ESE,104,0.0,0.0,80,0.00,,,0.00,weatherlink.com 1.10,2013-09-27 01:01:00,
2013-09-26 21:16:00,60.4,52.0,30.08,ENE,71,0.0,0.0,73,0.00,,,0.00,weatherlink.com 1.10,2013-09-27 01:16:00,
2013-09-26 21:31:00,60.5,50.0,30.09,WSW,252,0.0,1.0,69,0.00,,,0.00,weatherlink.com 1.10,2013-09-27 01:31:00,
2013-09-26 22:01:00,59.9,51.0,30.09,East,101,0.0,0.0,73,0.00,,,0.00,weatherlink.com 1.10,2013-09-27 02:01:00,
2013-09-26 22:16:00,59.3,51.0,30.10,East,101,0.0,0.0,75,0.00,,,0.00,weatherlink.com 1.10,2013-09-27 02:16:00,
2013-09-26 22:31:00,58.6,50.0,30.10,East,101,0.0,0.0,74,0.00,,,0.00,weatherlink.com 1.10,2013-09-27 02:31:00,
2013-09-26 22:46:00,58.1,50.0,30.10,East,101,0.0,0.0,75,0.00,,,0.00,weatherlink.com 1.10,2013-09-27 02:46:00,
2013-09-26 23:02:00,57.6,50.0,30.10,East,101,0.0,0.0,77,0.00,,,0.00,weatherlink.com 1.10,2013-09-27 03:02:00,
2013-09-26 23:16:00,57.2,50.0,30.10,East,101,0.0,0.0,77,0.00,,,0.00,weatherlink.com 1.10,2013-09-27 03:16:00,
2013-09-26 23:31:00,56.8,49.0,30.10,East,101,0.0,0.0,75,0.00,,,0.00,weatherlink.com 1.10,2013-09-27 03:31:00,
2013-09-26 23:46:00,56.5,49.0,30.10,NE,46,0.0,1.0,77,0.00,,,0.00,weatherlink.com 1.10,2013-09-27 03:46:00,